createdAt,value
2023-03-14T00:09:16.494Z,11.1
2023-03-14T00:19:18.592Z,10.9
2023-03-14T00:29:20.565Z,10.8
2023-03-14T00:39:23.007Z,10.7
2023-03-14T00:49:24.759Z,10.9
2023-03-14T00:59:26.721Z,11.1
2023-03-14T01:09:29.334Z,11.2
2023-03-14T01:19:31.138Z,9.9
2023-03-14T01:29:33.410Z,9.2
2023-03-14T01:39:35.318Z,8.9
2023-03-14T01:49:37.754Z,8.7
2023-03-14T01:59:39.595Z,8.7
2023-03-14T02:09:41.928Z,8.6
2023-03-14T02:19:44.070Z,8.7
2023-03-14T02:29:46.564Z,8.7
2023-03-14T02:39:48.501Z,8.8
2023-03-14T02:49:50.963Z,9
2023-03-14T02:59:52.780Z,9.1
2023-03-14T03:09:55.136Z,9.1
2023-03-14T03:19:57.215Z,9
2023-03-14T03:29:58.929Z,9.1
2023-03-14T03:40:00.789Z,9.2
2023-03-14T03:50:03.023Z,9
2023-03-14T04:00:04.832Z,9
2023-03-14T04:10:07.326Z,9.2
2023-03-14T04:20:09.880Z,9.3
2023-03-14T04:30:12.381Z,9.2
2023-03-14T04:40:15.579Z,9
2023-03-14T04:50:16.264Z,9.1
2023-03-14T05:00:18.760Z,8.6
2023-03-14T05:10:20.375Z,8.2
2023-03-14T05:20:22.168Z,7.9
2023-03-14T05:30:23.917Z,7.7
2023-03-14T05:40:25.620Z,7.6
2023-03-14T05:50:27.936Z,7.7
2023-03-14T06:00:30.566Z,7.6
2023-03-14T06:20:34.725Z,7.5
2023-03-14T06:30:36.717Z,7.6
2023-03-14T06:40:38.245Z,7.7
2023-03-14T06:50:40.838Z,7.8
2023-03-14T07:00:42.837Z,8
2023-03-14T07:10:44.691Z,8.2
2023-03-14T07:30:49.010Z,8.5
2023-03-14T07:40:51.105Z,8.8
2023-03-14T07:50:52.951Z,8.8
2023-03-14T08:00:55.133Z,9
2023-03-14T08:10:57.270Z,9.1
2023-03-14T08:20:59.429Z,9.2
2023-03-14T08:31:02.299Z,9.1
2023-03-14T08:41:04.031Z,9.2
2023-03-14T08:51:06.401Z,9.3
2023-03-14T09:01:08.293Z,9.6
2023-03-14T09:11:09.919Z,9.5
2023-03-14T09:21:11.730Z,9.2
2023-03-14T09:31:14.084Z,9.4
2023-03-14T09:41:16.666Z,8.6
2023-03-14T09:51:18.310Z,8
2023-03-14T10:01:20.938Z,7.8
2023-03-14T10:11:23.356Z,7.5
2023-03-14T10:21:25.434Z,7.4
2023-03-14T10:31:27.163Z,7.2
2023-03-14T10:41:29.383Z,6.8
2023-03-14T11:01:33.388Z,6.1
2023-03-14T11:11:35.844Z,5.8
2023-03-14T11:21:37.769Z,5.6
2023-03-14T11:41:41.666Z,5.6
2023-03-14T11:51:44.085Z,5.5
2023-03-14T12:01:45.929Z,5.2
2023-03-14T12:11:47.970Z,5.6
2023-03-14T12:21:49.502Z,6
2023-03-14T12:31:51.956Z,6.2
2023-03-14T12:41:54.178Z,6.2
2023-03-14T13:01:58.699Z,4.6
2023-03-14T13:12:00.343Z,5.1
2023-03-14T13:22:02.541Z,5.5
2023-03-14T13:32:04.500Z,5.7
2023-03-14T13:42:06.325Z,6
2023-03-14T13:52:08.401Z,6.9
2023-03-14T14:02:10.656Z,7.1
2023-03-14T14:12:16.250Z,7.2
2023-03-14T14:22:14.521Z,7.7
2023-03-14T14:32:16.954Z,7.1
2023-03-14T14:42:19.200Z,6.9
2023-03-14T14:52:20.926Z,7.5
2023-03-14T15:02:22.842Z,6.9
2023-03-14T15:12:24.472Z,6.8
2023-03-14T15:22:26.243Z,6.8
2023-03-14T15:32:28.607Z,7.4
2023-03-14T15:42:30.447Z,7
2023-03-14T15:52:32.679Z,6.9
2023-03-14T16:02:34.496Z,6.4
2023-03-14T16:12:36.407Z,6.3
2023-03-14T16:22:38.633Z,5.9
2023-03-14T16:32:40.718Z,5.9
2023-03-14T16:52:45.149Z,5.7
2023-03-14T16:53:10.786Z,5.7
2023-03-14T17:02:54.540Z,5.5
2023-03-14T17:12:57.079Z,5.3
2023-03-14T17:22:59.562Z,5.1
2023-03-14T17:33:01.750Z,5
2023-03-14T17:43:03.614Z,4.8
2023-03-14T17:53:05.475Z,4.6
2023-03-14T18:03:07.520Z,4.5
2023-03-14T18:13:09.418Z,4.4
2023-03-14T18:23:11.319Z,4.3
2023-03-14T18:33:13.771Z,4.3
2023-03-14T18:43:15.567Z,4.2
2023-03-14T18:53:17.263Z,4
2023-03-14T19:03:19.568Z,4
2023-03-14T19:13:21.848Z,3.8
2023-03-14T19:23:24.489Z,3.7
2023-03-14T19:33:26.584Z,3.6
2023-03-14T19:43:28.623Z,3.6
2023-03-14T20:03:33.054Z,3.6
2023-03-14T20:13:35.261Z,3.5
2023-03-14T20:23:37.327Z,3.3
2023-03-14T20:33:39.303Z,3.2
2023-03-14T21:13:47.899Z,2.6
2023-03-14T21:33:51.395Z,2.4
2023-03-14T21:43:53.535Z,2.2
2023-03-14T21:53:55.890Z,2.1
2023-03-14T22:13:59.720Z,2
2023-03-14T22:34:04.204Z,1.9
2023-03-14T23:54:21.305Z,1.1
